Terminal Aerodrome Forecast
Issued by NWS

Home | Current Version | Previous Version | Text Only | Print | Product List | Glossary On
Versions: 1 2 3 4 5 6 7 8 9 10 11 12 13 14 15
000
FTAK31 PANC 191130
TAFAEN
TAF
PAEN 191130Z 1912/2012 12005KT P6SM VCSH BKN013 OVC022
      TEMPO 1912/1916 BKN008
     FM192100 VRB03KT P6SM BKN025 OVC060
     FM200600 24004KT P6SM SCT008 OVC012=

USA.gov is the U.S. government's official web portal to all federal, state and local government web resources and services.